Newtown, Connecticut
Current Conditions -  °F | °C
As of 3:53 AM on Wednesday 26 Nov 2014 (Local Time) from KDXR Reporting Station
Broken Clouds Broken Clouds  
Wind Chill: 43°   Ceiling: 11000
Heat Index: 43°   Visibility: 10mi
Dew Point: 26°   Wind: 3mph
Humidity: 51%   Direction: 10°N
Pressure: 30.2"   Gusts: NA
Location:  41.41°N, 73.3°W
Report Text: KDXR 260853Z AUTO 01003KT 10SM BKN110 06/M03 A3020 RMK AO2 SLP228 T00611033 50016
Loading
Personal Weather Stations






























Interactive Weather Map New forecast layout! Learn more

10-Day Weather Forecast

Advertisements
Track Severe Weather on mobile